Time;durP1;ratioP1;P1;durP2;ratioP2;P2;SDS_P1;SDS_P2;PMS_P1;PMS_P2;Temp;Humidity;BMP_temperature;BMP_pressure;BME280_temperature;BME280_humidity;BME280_pressure;Samples;Min_cycle;Max_cycle;Signal;HPM_P1;HPM_P2
2022/03/09 00:00:15;;;;;;;;;;;-1.80;99.90;;;;;;5096981;28;20049;-74
2022/03/09 00:02:41;;;;;;;;;;;-1.70;99.90;;;;;;5090492;28;20010;-75
2022/03/09 00:05:07;;;;;;;;;;;-1.70;99.90;;;;;;5092236;28;19918;-74
2022/03/09 00:07:32;;;;;;;;;;;-1.70;99.90;;;;;;5090600;28;19912;-73
2022/03/09 00:09:58;;;;;;;;;;;-1.80;99.90;;;;;;5091795;28;19920;-74
2022/03/09 00:12:23;;;;;;;;;;;-1.80;99.90;;;;;;5090807;28;19916;-75
2022/03/09 00:14:49;;;;;;;;;;;-1.80;99.90;;;;;;5092127;28;19961;-74
2022/03/09 00:17:15;;;;;;;;;;;-1.80;99.90;;;;;;5091742;28;19916;-75
2022/03/09 00:19:40;;;;;;;;;;;-1.80;99.90;;;;;;5092182;28;19913;-75
2022/03/09 00:22:06;;;;;;;;;;;-1.80;99.90;;;;;;5090387;28;20026;-75
2022/03/09 00:24:32;;;;;;;;;;;-1.90;99.90;;;;;;5090774;28;20434;-75
2022/03/09 00:26:58;;;;;;;;;;;-1.90;99.90;;;;;;5090456;28;19919;-75
2022/03/09 00:29:24;;;;;;;;;;;-1.80;99.90;;;;;;5091768;28;19916;-75
2022/03/09 00:31:50;;;;;;;;;;;-1.80;99.90;;;;;;5090155;28;19923;-74
2022/03/09 00:34:15;;;;;;;;;;;-1.80;99.90;;;;;;5090490;28;19923;-74
2022/03/09 00:36:41;;;;;;;;;;;-1.80;99.90;;;;;;5091294;28;19920;-74
2022/03/09 00:39:07;;;;;;;;;;;-1.80;99.90;;;;;;5091782;28;19912;-74
2022/03/09 00:41:32;;;;;;;;;;;-1.90;99.90;;;;;;5107064;28;19922;-74
2022/03/09 00:43:58;;;;;;;;;;;-1.90;99.90;;;;;;5111908;28;19912;-74
2022/03/09 00:46:24;;;;;;;;;;;-1.90;99.90;;;;;;5094367;28;19912;-75
2022/03/09 00:48:49;;;;;;;;;;;-2.00;99.90;;;;;;5090421;28;19912;-75
2022/03/09 00:51:15;;;;;;;;;;;-2.00;99.90;;;;;;5091590;28;19916;-75
2022/03/09 00:53:41;;;;;;;;;;;-2.00;99.90;;;;;;5093241;28;19916;-74
2022/03/09 00:56:06;;;;;;;;;;;-2.00;99.90;;;;;;5093103;28;19985;-74
2022/03/09 00:58:32;;;;;;;;;;;-2.00;99.90;;;;;;5111462;28;20460;-73
2022/03/09 01:00:58;;;;;;;;;;;-2.00;99.90;;;;;;5099231;28;19960;-74
2022/03/09 01:03:23;;;;;;;;;;;-2.00;99.90;;;;;;5092957;28;19919;-74
2022/03/09 01:05:49;;;;;;;;;;;-2.00;99.90;;;;;;5092479;28;20306;-73
2022/03/09 01:08:14;;;;;;;;;;;-2.00;99.90;;;;;;5111327;28;19923;-74
2022/03/09 01:10:40;;;;;;;;;;;-2.00;99.90;;;;;;5111452;28;20414;-74
2022/03/09 01:13:06;;;;;;;;;;;-2.00;99.90;;;;;;5092852;28;19914;-74
2022/03/09 01:15:32;;;;;;;;;;;-2.00;99.90;;;;;;5093063;28;19915;-73
2022/03/09 01:17:57;;;;;;;;;;;-2.00;99.90;;;;;;5111187;28;19986;-74
2022/03/09 01:20:23;;;;;;;;;;;-1.90;99.90;;;;;;5111171;28;20305;-74
2022/03/09 01:22:49;;;;;;;;;;;-1.90;99.90;;;;;;5111335;28;19965;-75
2022/03/09 01:25:14;;;;;;;;;;;-1.90;99.90;;;;;;5111745;28;19926;-74
2022/03/09 01:27:40;;;;;;;;;;;-1.90;99.90;;;;;;5111137;28;19957;-74
2022/03/09 01:30:06;;;;;;;;;;;-1.90;99.90;;;;;;5111690;28;20282;-74
2022/03/09 01:32:31;;;;;;;;;;;-1.90;99.90;;;;;;5111138;28;19908;-74
2022/03/09 01:34:57;;;;;;;;;;;-1.90;99.90;;;;;;5111250;28;19919;-74
2022/03/09 01:37:23;;;;;;;;;;;-1.90;99.90;;;;;;5092540;28;19908;-75
2022/03/09 01:39:48;;;;;;;;;;;-1.90;99.90;;;;;;5092885;28;20251;-74
2022/03/09 01:42:14;;;;;;;;;;;-1.90;99.90;;;;;;5092768;28;19912;-75
2022/03/09 01:44:40;;;;;;;;;;;-1.90;99.90;;;;;;5111602;28;19915;-74
2022/03/09 01:47:05;;;;;;;;;;;-1.90;99.90;;;;;;5092856;28;19923;-74
2022/03/09 01:49:31;;;;;;;;;;;-1.90;99.90;;;;;;5092775;28;19951;-74
2022/03/09 01:51:58;;;;;;;;;;;-1.90;99.90;;;;;;5110775;28;19984;-74
2022/03/09 01:54:24;;;;;;;;;;;-1.90;99.90;;;;;;5111349;28;19916;-73
2022/03/09 01:56:50;;;;;;;;;;;-1.90;99.90;;;;;;5110819;28;19907;-74
2022/03/09 01:59:16;;;;;;;;;;;-1.90;99.90;;;;;;5115279;28;19942;-73
2022/03/09 02:01:45;;;;;;;;;;;-1.90;99.90;;;;;;5093875;28;20062;-74
2022/03/09 02:04:10;;;;;;;;;;;-1.90;99.90;;;;;;5111285;28;19911;-75
2022/03/09 02:06:38;;;;;;;;;;;-1.90;99.90;;;;;;5110678;28;19912;-74
2022/03/09 02:11:48;;;;;;;;;;;-2.00;99.90;;;;;;5110721;28;19934;-74
2022/03/09 02:14:27;;;;;;;;;;;-2.00;99.90;;;;;;5111151;28;19912;-73
2022/03/09 02:16:52;;;;;;;;;;;-1.90;99.90;;;;;;5110593;28;19911;-74
2022/03/09 02:19:18;;;;;;;;;;;-2.00;99.90;;;;;;5114862;28;20010;-74
2022/03/09 02:21:45;;;;;;;;;;;-1.90;99.90;;;;;;5096243;28;20328;-74
2022/03/09 02:24:11;;;;;;;;;;;-2.00;99.90;;;;;;5114519;28;19912;-74
2022/03/09 02:26:37;;;;;;;;;;;-2.00;99.90;;;;;;5114394;28;20402;-74
2022/03/09 02:29:03;;;;;;;;;;;-2.00;99.90;;;;;;5114323;28;19937;-75
2022/03/09 02:31:28;;;;;;;;;;;-2.00;99.90;;;;;;5114612;28;19951;-74
2022/03/09 02:33:54;;;;;;;;;;;-2.00;99.90;;;;;;5096042;28;19964;-74
2022/03/09 02:36:20;;;;;;;;;;;-2.00;99.90;;;;;;5095769;28;19944;-75
2022/03/09 02:38:46;;;;;;;;;;;-2.00;99.90;;;;;;5095861;28;19984;-74
2022/03/09 02:41:11;;;;;;;;;;;-2.10;99.90;;;;;;5096010;28;19915;-74
2022/03/09 02:43:37;;;;;;;;;;;-2.10;99.90;;;;;;5114330;28;19912;-74
2022/03/09 02:46:03;;;;;;;;;;;-2.10;99.90;;;;;;5108691;27;19912;-74
2022/03/09 02:48:28;;;;;;;;;;;-2.10;99.90;;;;;;5134810;27;19933;-74
2022/03/09 02:50:54;;;;;;;;;;;-2.20;99.90;;;;;;5122858;27;19963;-73
2022/03/09 02:53:20;;;;;;;;;;;-2.20;99.90;;;;;;5113845;28;19924;-74
2022/03/09 02:55:46;;;;;;;;;;;-2.20;99.90;;;;;;5114256;28;20371;-74
2022/03/09 02:58:11;;;;;;;;;;;-2.10;99.90;;;;;;5079090;28;19912;-75
2022/03/09 03:00:37;;;;;;;;;;;-2.20;99.90;;;;;;5120594;27;20339;-74
2022/03/09 03:03:02;;;;;;;;;;;-2.10;99.90;;;;;;5095425;28;19912;-74
2022/03/09 03:05:28;;;;;;;;;;;-2.10;99.90;;;;;;5113714;28;20417;-75
2022/03/09 03:07:54;;;;;;;;;;;-2.10;99.90;;;;;;5095406;28;20256;-74
2022/03/09 03:10:19;;;;;;;;;;;-2.10;99.90;;;;;;5101793;27;19916;-74
2022/03/09 03:12:45;;;;;;;;;;;-2.10;99.90;;;;;;5134175;27;19923;-74
2022/03/09 03:15:11;;;;;;;;;;;-2.10;99.90;;;;;;5128985;27;20263;-74
2022/03/09 03:17:37;;;;;;;;;;;-2.10;99.90;;;;;;5095220;28;19985;-73
2022/03/09 03:20:03;;;;;;;;;;;-2.00;99.90;;;;;;5117484;27;19907;-74
2022/03/09 03:22:29;;;;;;;;;;;-2.00;99.90;;;;;;5115398;27;19920;-74
2022/03/09 03:24:54;;;;;;;;;;;-2.00;99.90;;;;;;5133594;27;19915;-74
2022/03/09 03:27:20;;;;;;;;;;;-2.00;99.90;;;;;;5115575;27;19919;-74
2022/03/09 03:29:45;;;;;;;;;;;-2.00;99.90;;;;;;5130865;27;19911;-74
2022/03/09 03:32:11;;;;;;;;;;;-2.10;99.90;;;;;;5113288;28;19950;-75
2022/03/09 03:34:37;;;;;;;;;;;-2.10;99.90;;;;;;5094908;28;19939;-74
2022/03/09 03:37:03;;;;;;;;;;;-2.10;99.90;;;;;;5094726;28;19923;-74
2022/03/09 03:39:28;;;;;;;;;;;-2.10;99.90;;;;;;5113306;28;19907;-74
2022/03/09 03:41:54;;;;;;;;;;;-2.10;99.90;;;;;;5112838;28;19915;-74
2022/03/09 03:44:19;;;;;;;;;;;-2.10;99.90;;;;;;5094735;28;19907;-74
2022/03/09 03:46:45;;;;;;;;;;;-2.10;99.90;;;;;;5131807;27;19923;-74
2022/03/09 03:49:11;;;;;;;;;;;-2.20;99.90;;;;;;5133304;27;19912;-76
2022/03/09 03:51:36;;;;;;;;;;;-2.20;99.90;;;;;;5115152;27;20377;-74
2022/03/09 03:54:02;;;;;;;;;;;-2.20;99.90;;;;;;5094580;28;19916;-75
2022/03/09 03:56:28;;;;;;;;;;;-2.20;99.90;;;;;;5094232;28;19919;-74
2022/03/09 03:58:53;;;;;;;;;;;-2.20;99.90;;;;;;5113485;27;19908;-74
2022/03/09 04:01:19;;;;;;;;;;;-2.20;99.90;;;;;;5099306;28;20320;-74
2022/03/09 04:03:44;;;;;;;;;;;-2.30;99.90;;;;;;5094311;28;19911;-74
2022/03/09 04:06:10;;;;;;;;;;;-2.20;99.90;;;;;;5112659;28;19916;-75
2022/03/09 04:08:36;;;;;;;;;;;-2.20;99.90;;;;;;5094122;28;19976;-75
2022/03/09 04:11:01;;;;;;;;;;;-2.20;99.90;;;;;;5111936;28;20355;-75
2022/03/09 04:13:27;;;;;;;;;;;-2.10;99.90;;;;;;5094134;28;19919;-74
2022/03/09 04:15:53;;;;;;;;;;;-2.20;99.90;;;;;;5111933;28;20287;-74
2022/03/09 04:18:18;;;;;;;;;;;-2.30;99.90;;;;;;5112353;28;20303;-74
2022/03/09 04:20:44;;;;;;;;;;;-2.30;99.90;;;;;;5111952;28;19923;-73
2022/03/09 04:23:10;;;;;;;;;;;-2.30;99.90;;;;;;5093827;28;19908;-74
2022/03/09 04:25:37;;;;;;;;;;;-2.30;99.90;;;;;;5093710;28;20072;-74
2022/03/09 04:28:03;;;;;;;;;;;-2.30;99.90;;;;;;5093920;28;19908;-75
2022/03/09 04:30:28;;;;;;;;;;;-2.30;99.90;;;;;;5093852;28;19924;-75
2022/03/09 04:32:54;;;;;;;;;;;-2.30;99.90;;;;;;5093737;28;19915;-75
2022/03/09 04:35:20;;;;;;;;;;;-2.30;99.90;;;;;;5112485;28;19915;-72
2022/03/09 04:37:46;;;;;;;;;;;-2.30;99.90;;;;;;5112503;28;20252;-73
2022/03/09 04:40:12;;;;;;;;;;;-2.30;99.90;;;;;;5093678;28;19995;-75
2022/03/09 04:42:37;;;;;;;;;;;-2.40;99.90;;;;;;5111874;28;19962;-73
2022/03/09 04:45:03;;;;;;;;;;;-2.40;99.90;;;;;;5115933;27;20022;-74
2022/03/09 04:47:29;;;;;;;;;;;-2.40;99.90;;;;;;5114025;27;19915;-74
2022/03/09 04:49:55;;;;;;;;;;;-2.40;99.90;;;;;;5132458;27;20018;-73
2022/03/09 04:52:21;;;;;;;;;;;-2.40;99.90;;;;;;5147815;27;20267;-75
2022/03/09 04:54:46;;;;;;;;;;;-2.40;99.90;;;;;;5113815;27;20267;-74
2022/03/09 04:57:12;;;;;;;;;;;-2.40;99.90;;;;;;5113543;27;19912;-74
2022/03/09 04:59:37;;;;;;;;;;;-2.40;99.90;;;;;;5131511;27;19961;-74
2022/03/09 05:02:03;;;;;;;;;;;-2.40;99.90;;;;;;5093233;28;19912;-74
2022/03/09 05:04:29;;;;;;;;;;;-2.40;99.90;;;;;;5111992;28;19912;-73
2022/03/09 05:06:55;;;;;;;;;;;-2.40;99.90;;;;;;5113257;28;19933;-74
2022/03/09 05:09:21;;;;;;;;;;;-2.40;99.90;;;;;;5132209;27;20338;-76
2022/03/09 05:11:46;;;;;;;;;;;-2.30;99.90;;;;;;5112549;27;19962;-74
2022/03/09 05:14:12;;;;;;;;;;;-2.30;99.90;;;;;;5111606;28;19916;-74
2022/03/09 05:16:37;;;;;;;;;;;-2.20;99.90;;;;;;5093003;28;20014;-76
2022/03/09 05:19:03;;;;;;;;;;;-2.30;99.90;;;;;;5093075;28;19919;-74
2022/03/09 05:21:28;;;;;;;;;;;-2.30;99.90;;;;;;5127443;27;19998;-75
2022/03/09 05:23:54;;;;;;;;;;;-2.30;99.90;;;;;;5132054;28;19912;-74
2022/03/09 05:26:20;;;;;;;;;;;-2.20;99.90;;;;;;5116700;28;19968;-74
2022/03/09 05:28:45;;;;;;;;;;;-2.20;99.90;;;;;;5093121;28;19955;-73
2022/03/09 05:31:11;;;;;;;;;;;-2.20;99.90;;;;;;5110915;28;19920;-74
2022/03/09 05:33:36;;;;;;;;;;;-2.20;99.90;;;;;;5093045;28;19912;-74
2022/03/09 05:36:02;;;;;;;;;;;-2.20;99.90;;;;;;5092662;28;19912;-74
2022/03/09 05:38:28;;;;;;;;;;;-2.20;99.90;;;;;;5092732;28;19911;-74
2022/03/09 05:40:54;;;;;;;;;;;-2.20;99.90;;;;;;5092545;28;20029;-75
2022/03/09 05:43:20;;;;;;;;;;;-2.20;99.90;;;;;;5111099;28;20533;-74
2022/03/09 05:45:46;;;;;;;;;;;-2.10;99.90;;;;;;5110953;28;20371;-74
2022/03/09 05:48:11;;;;;;;;;;;-2.10;99.90;;;;;;5111340;28;19931;-74
2022/03/09 05:50:37;;;;;;;;;;;-2.10;99.90;;;;;;5110961;28;19919;-74
2022/03/09 05:53:03;;;;;;;;;;;-2.20;99.90;;;;;;5112482;28;19965;-74
2022/03/09 05:55:28;;;;;;;;;;;-2.20;99.90;;;;;;5115181;28;19915;-75
2022/03/09 05:57:54;;;;;;;;;;;-2.20;99.90;;;;;;5097119;28;20014;-73
2022/03/09 06:00:20;;;;;;;;;;;-2.30;99.90;;;;;;5121299;27;19990;-74
2022/03/09 06:02:45;;;;;;;;;;;-2.20;99.90;;;;;;5096325;28;19930;-74
2022/03/09 06:05:11;;;;;;;;;;;-2.10;99.90;;;;;;5114971;28;19954;-74
2022/03/09 06:07:37;;;;;;;;;;;-2.00;99.90;;;;;;5096506;28;19916;-74
2022/03/09 06:10:03;;;;;;;;;;;-2.00;99.90;;;;;;5114530;28;20016;-73
2022/03/09 06:12:29;;;;;;;;;;;-2.00;99.90;;;;;;5096066;28;19952;-74
2022/03/09 06:14:55;;;;;;;;;;;-1.90;99.90;;;;;;5099722;27;19960;-74
2022/03/09 06:17:21;;;;;;;;;;;-2.00;99.90;;;;;;5116746;27;19923;-75
2022/03/09 06:19:46;;;;;;;;;;;-1.90;99.90;;;;;;5116459;27;19917;-74
2022/03/09 06:22:12;;;;;;;;;;;-1.90;99.90;;;;;;5116672;27;19926;-75
2022/03/09 06:24:37;;;;;;;;;;;-1.90;99.90;;;;;;5135531;27;19992;-75
2022/03/09 06:27:04;;;;;;;;;;;-1.90;99.90;;;;;;5134906;27;20393;-74
2022/03/09 06:29:30;;;;;;;;;;;-1.90;99.90;;;;;;5135471;27;20270;-74
2022/03/09 06:31:55;;;;;;;;;;;-1.90;99.90;;;;;;5114128;27;19947;-74
2022/03/09 06:34:21;;;;;;;;;;;-1.90;99.90;;;;;;5096057;28;19954;-74
2022/03/09 06:36:47;;;;;;;;;;;-1.90;99.90;;;;;;5114190;28;20394;-74
2022/03/09 06:39:14;;;;;;;;;;;-1.90;99.90;;;;;;5114405;28;19911;-75
2022/03/09 06:41:43;;;;;;;;;;;-1.90;99.90;;;;;;5095659;28;19916;-74
2022/03/09 06:44:10;;;;;;;;;;;-2.00;99.90;;;;;;5113999;28;20313;-74
2022/03/09 06:46:35;;;;;;;;;;;-2.00;99.90;;;;;;5114091;28;20023;-74
2022/03/09 06:49:01;;;;;;;;;;;-1.90;99.90;;;;;;5114167;28;20403;-74
2022/03/09 06:51:27;;;;;;;;;;;-1.80;99.90;;;;;;5114403;28;20267;-75
2022/03/09 06:53:52;;;;;;;;;;;-1.70;99.90;;;;;;5114320;28;19912;-74
2022/03/09 06:56:18;;;;;;;;;;;-1.60;99.90;;;;;;5095653;28;19919;-75
2022/03/09 06:58:44;;;;;;;;;;;-1.60;99.90;;;;;;5095970;28;19919;-74
2022/03/09 07:01:10;;;;;;;;;;;-1.60;99.90;;;;;;5115097;27;19955;-74
2022/03/09 07:03:35;;;;;;;;;;;-1.60;99.90;;;;;;5114774;28;19915;-74
2022/03/09 07:06:01;;;;;;;;;;;-1.60;99.90;;;;;;5120950;27;20286;-74
2022/03/09 07:08:28;;;;;;;;;;;-1.60;99.90;;;;;;5113775;28;19919;-74
2022/03/09 07:10:53;;;;;;;;;;;-1.50;99.90;;;;;;5095113;28;19915;-73
2022/03/09 07:13:19;;;;;;;;;;;-1.50;99.90;;;;;;5094857;28;20276;-74
2022/03/09 07:15:44;;;;;;;;;;;-1.50;99.90;;;;;;5094929;28;19916;-75
2022/03/09 07:18:10;;;;;;;;;;;-1.50;99.90;;;;;;5095318;28;20371;-74
2022/03/09 07:20:36;;;;;;;;;;;-1.40;99.90;;;;;;5095272;28;19916;-75
2022/03/09 07:23:01;;;;;;;;;;;-1.40;99.90;;;;;;5113049;28;19954;-75
2022/03/09 07:25:27;;;;;;;;;;;-1.40;99.90;;;;;;5113228;28;19919;-75
2022/03/09 07:27:53;;;;;;;;;;;-1.40;99.90;;;;;;5094942;28;19911;-75
2022/03/09 07:30:19;;;;;;;;;;;-1.30;99.90;;;;;;5095001;28;19968;-74
2022/03/09 07:32:44;;;;;;;;;;;-1.30;99.90;;;;;;5094945;28;19912;-74
2022/03/09 07:35:10;;;;;;;;;;;-1.20;99.90;;;;;;5112698;28;19960;-74
2022/03/09 07:37:36;;;;;;;;;;;-1.20;99.90;;;;;;5113136;28;19920;-75
2022/03/09 07:40:04;;;;;;;;;;;-1.20;99.90;;;;;;5094621;28;19911;-73
2022/03/09 07:42:29;;;;;;;;;;;-1.10;99.90;;;;;;5094689;28;19915;-74
2022/03/09 07:44:55;;;;;;;;;;;-1.10;99.90;;;;;;5094478;28;20312;-74
2022/03/09 07:47:21;;;;;;;;;;;-1.10;99.90;;;;;;5113053;28;19955;-74
2022/03/09 07:49:46;;;;;;;;;;;-1.20;99.90;;;;;;5094838;28;19920;-77
2022/03/09 07:52:12;;;;;;;;;;;-1.10;99.90;;;;;;5094610;28;19946;-75
2022/03/09 07:54:38;;;;;;;;;;;-1.10;99.90;;;;;;5094808;28;20283;-75
2022/03/09 07:57:03;;;;;;;;;;;-0.90;99.90;;;;;;5113246;28;19923;-74
2022/03/09 07:59:29;;;;;;;;;;;-0.80;99.90;;;;;;5100403;27;19916;-74
2022/03/09 08:01:55;;;;;;;;;;;-0.70;99.90;;;;;;5112902;28;19916;-74
2022/03/09 08:04:21;;;;;;;;;;;-0.30;99.90;;;;;;5094276;28;19947;-73
2022/03/09 08:06:48;;;;;;;;;;;-0.10;99.90;;;;;;5094231;28;19964;-74
2022/03/09 08:09:13;;;;;;;;;;;0.20;99.90;;;;;;5094153;28;19919;-74
2022/03/09 08:11:42;;;;;;;;;;;0.20;99.90;;;;;;5111938;27;19911;-74
2022/03/09 08:14:08;;;;;;;;;;;0.10;99.90;;;;;;5114275;27;19938;-74
2022/03/09 08:16:33;;;;;;;;;;;-0.10;99.90;;;;;;5132157;27;20366;-75
2022/03/09 08:18:59;;;;;;;;;;;-0.30;99.90;;;;;;5148374;27;19918;-74
2022/03/09 08:21:25;;;;;;;;;;;-0.20;99.90;;;;;;5135786;27;19912;-74
2022/03/09 08:23:50;;;;;;;;;;;-0.20;99.90;;;;;;5132379;27;20439;-74
2022/03/09 08:26:16;;;;;;;;;;;-0.20;99.90;;;;;;5132782;27;20377;-73
2022/03/09 08:28:41;;;;;;;;;;;-0.20;99.90;;;;;;5132276;27;20034;-75
2022/03/09 08:31:07;;;;;;;;;;;-0.20;99.90;;;;;;5118869;27;20220;-74
2022/03/09 08:33:33;;;;;;;;;;;-0.30;99.90;;;;;;5111907;28;19977;-73
2022/03/09 08:35:59;;;;;;;;;;;-0.30;99.90;;;;;;5093351;28;20323;-75
2022/03/09 08:38:25;;;;;;;;;;;-0.30;99.90;;;;;;5112021;28;19912;-74
2022/03/09 08:40:50;;;;;;;;;;;-0.30;99.90;;;;;;5093575;28;19936;-74
2022/03/09 08:43:17;;;;;;;;;;;-0.30;99.90;;;;;;5111989;28;19968;-74
2022/03/09 08:45:43;;;;;;;;;;;-0.20;99.90;;;;;;5111705;28;19911;-74
2022/03/09 08:48:09;;;;;;;;;;;-0.20;99.90;;;;;;5111993;28;19912;-75
2022/03/09 08:50:35;;;;;;;;;;;-0.20;99.90;;;;;;5093590;28;19915;-74
2022/03/09 08:53:00;;;;;;;;;;;-0.10;99.90;;;;;;5089612;28;19928;-74
2022/03/09 08:55:26;;;;;;;;;;;0.00;99.90;;;;;;5091096;28;19913;-75
2022/03/09 08:57:51;;;;;;;;;;;0.10;99.90;;;;;;5090079;28;19912;-75
2022/03/09 09:00:17;;;;;;;;;;;0.20;99.90;;;;;;5103342;28;19919;-75
2022/03/09 09:02:43;;;;;;;;;;;0.20;99.90;;;;;;5111154;28;19919;-74
2022/03/09 09:05:09;;;;;;;;;;;0.20;99.90;;;;;;5104639;28;19993;-74
2022/03/09 09:07:35;;;;;;;;;;;0.20;99.90;;;;;;5090035;28;19912;-74
2022/03/09 09:10:00;;;;;;;;;;;0.50;99.90;;;;;;5093552;28;20244;-74
2022/03/09 09:12:26;;;;;;;;;;;0.90;99.90;;;;;;5111566;28;19959;-74
2022/03/09 09:14:52;;;;;;;;;;;1.30;99.90;;;;;;5106948;28;20017;-74
2022/03/09 09:17:18;;;;;;;;;;;1.50;99.90;;;;;;5090030;28;19923;-74
2022/03/09 09:19:43;;;;;;;;;;;1.80;99.90;;;;;;5089973;28;19912;-74
2022/03/09 09:22:09;;;;;;;;;;;2.20;99.90;;;;;;5089738;28;19919;-75
2022/03/09 09:24:35;;;;;;;;;;;2.40;99.90;;;;;;5089961;28;19912;-74
2022/03/09 09:27:00;;;;;;;;;;;2.60;99.90;;;;;;5088808;28;19962;-74
2022/03/09 09:29:26;;;;;;;;;;;2.70;99.90;;;;;;5089618;28;19920;-73
2022/03/09 09:31:52;;;;;;;;;;;3.00;99.90;;;;;;5089494;28;20433;-74
2022/03/09 09:34:17;;;;;;;;;;;3.20;99.90;;;;;;5089644;28;19912;-74
2022/03/09 09:36:46;;;;;;;;;;;3.40;99.90;;;;;;5089197;28;20003;-74
2022/03/09 09:39:13;;;;;;;;;;;3.60;99.90;;;;;;5089599;28;19923;-75
2022/03/09 09:41:41;;;;;;;;;;;3.80;99.90;;;;;;5089240;28;19995;-73
2022/03/09 09:47:14;;;;;;;;;;;4.30;99.90;;;;;;5091023;28;20162;-75
2022/03/09 09:49:42;;;;;;;;;;;4.40;99.90;;;;;;5091877;28;19923;-74
2022/03/09 09:52:09;;;;;;;;;;;4.60;99.90;;;;;;5109706;28;19927;-75
2022/03/09 09:54:34;;;;;;;;;;;4.90;99.90;;;;;;5110682;28;19969;-74
2022/03/09 09:57:01;;;;;;;;;;;4.80;99.90;;;;;;5090744;28;19908;-75
2022/03/09 09:59:27;;;;;;;;;;;4.60;99.90;;;;;;5094795;28;20010;-75
2022/03/09 10:01:52;;;;;;;;;;;4.50;99.90;;;;;;5090895;28;19951;-74
2022/03/09 10:04:18;;;;;;;;;;;4.30;99.90;;;;;;5091325;28;19908;-74
2022/03/09 10:06:44;;;;;;;;;;;4.30;99.90;;;;;;5089197;28;19920;-75
2022/03/09 10:09:13;;;;;;;;;;;4.10;99.90;;;;;;5091279;28;19909;-75
2022/03/09 10:11:55;;;;;;;;;;;3.90;99.90;;;;;;5089403;28;19923;-74
2022/03/09 10:14:39;;;;;;;;;;;3.70;99.90;;;;;;5091404;28;19908;-76
2022/03/09 10:17:06;;;;;;;;;;;3.50;99.90;;;;;;5089194;28;19920;-74
2022/03/09 10:19:35;;;;;;;;;;;3.20;99.90;;;;;;5090898;28;20351;-77
2022/03/09 10:22:19;;;;;;;;;;;3.00;99.90;;;;;;5110882;28;19908;-75
2022/03/09 10:24:45;;;;;;;;;;;2.80;99.90;;;;;;5110723;28;19927;-74
2022/03/09 10:27:10;;;;;;;;;;;2.70;99.90;;;;;;5110765;28;19918;-74
2022/03/09 10:29:36;;;;;;;;;;;2.60;99.90;;;;;;5110158;28;19923;-74
2022/03/09 10:32:02;;;;;;;;;;;2.60;99.90;;;;;;5089391;28;19909;-75
2022/03/09 10:34:29;;;;;;;;;;;3.20;99.90;;;;;;5090408;28;19965;-74
2022/03/09 10:36:56;;;;;;;;;;;3.80;99.90;;;;;;5110589;28;19912;-74
2022/03/09 10:39:23;;;;;;;;;;;4.40;99.90;;;;;;5111940;28;19916;-74
2022/03/09 10:41:49;;;;;;;;;;;4.60;99.90;;;;;;5094701;28;19908;-73
2022/03/09 10:44:15;;;;;;;;;;;4.60;99.90;;;;;;5094319;28;19912;-75
2022/03/09 10:46:44;;;;;;;;;;;4.70;99.90;;;;;;5093355;28;20288;-75
2022/03/09 10:49:12;;;;;;;;;;;5.10;99.90;;;;;;5094319;28;19995;-74
2022/03/09 10:51:42;;;;;;;;;;;5.50;99.90;;;;;;5097233;28;19969;-75
2022/03/09 10:54:09;;;;;;;;;;;5.60;99.90;;;;;;5114118;28;19916;-76
2022/03/09 10:56:35;;;;;;;;;;;5.60;99.90;;;;;;5113705;28;19922;-74
2022/03/09 10:59:11;;;;;;;;;;;5.70;99.90;;;;;;5097715;27;20351;-75
2022/03/09 11:01:37;;;;;;;;;;;6.10;99.90;;;;;;5098476;28;19924;-77
2022/03/09 11:04:09;;;;;;;;;;;6.40;99.90;;;;;;5095387;28;19918;-76
2022/03/09 11:06:36;;;;;;;;;;;6.00;99.90;;;;;;5095029;28;19951;-75
2022/03/09 11:09:01;;;;;;;;;;;5.00;99.90;;;;;;5113818;28;19944;-75
2022/03/09 11:11:27;;;;;;;;;;;4.70;99.90;;;;;;5113526;28;19955;-75
2022/03/09 11:13:54;;;;;;;;;;;4.40;99.90;;;;;;5114110;28;19954;-75
2022/03/09 11:16:20;;;;;;;;;;;4.30;99.90;;;;;;5113495;28;20007;-74
2022/03/09 11:18:45;;;;;;;;;;;4.10;99.90;;;;;;5095332;28;19987;-74
2022/03/09 11:21:11;;;;;;;;;;;3.90;99.90;;;;;;5113142;28;20299;-74
2022/03/09 11:23:38;;;;;;;;;;;3.50;99.90;;;;;;5095145;28;20113;-74
2022/03/09 11:26:16;;;;;;;;;;;3.20;99.90;;;;;;5126282;27;19942;-74
2022/03/09 11:28:43;;;;;;;;;;;2.90;99.90;;;;;;5115490;27;19922;-74
2022/03/09 11:31:13;;;;;;;;;;;2.70;99.90;;;;;;5115091;27;19968;-75
2022/03/09 11:33:46;;;;;;;;;;;2.50;99.90;;;;;;5134103;27;19916;-75
2022/03/09 11:36:33;;;;;;;;;;;2.40;99.90;;;;;;5138613;27;20320;-74
2022/03/09 11:39:04;;;;;;;;;;;2.20;99.90;;;;;;5133768;27;19992;-74
2022/03/09 11:41:35;;;;;;;;;;;2.10;99.90;;;;;;5133579;27;19912;-75
2022/03/09 11:44:34;;;;;;;;;;;2.00;99.90;;;;;;5133952;27;20533;-74
2022/03/09 11:47:02;;;;;;;;;;;1.90;99.90;;;;;;5117397;27;19922;-74
2022/03/09 11:49:53;;;;;;;;;;;1.90;99.90;;;;;;5133540;27;19915;-74
2022/03/09 11:52:27;;;;;;;;;;;1.90;99.90;;;;;;5092055;28;19930;-74
2022/03/09 11:54:59;;;;;;;;;;;2.00;99.90;;;;;;5097557;27;19917;-73
2022/03/09 11:57:48;;;;;;;;;;;2.00;99.90;;;;;;5115056;27;19968;-74
2022/03/09 12:00:17;;;;;;;;;;;2.10;99.90;;;;;;5108510;27;19958;-74
2022/03/09 12:02:43;;;;;;;;;;;2.00;99.90;;;;;;5094833;28;20007;-73
2022/03/09 12:05:24;;;;;;;;;;;1.90;99.90;;;;;;5094213;28;20020;-74
2022/03/09 12:07:53;;;;;;;;;;;1.90;99.90;;;;;;5094301;28;19959;-74
2022/03/09 12:10:22;;;;;;;;;;;1.80;99.90;;;;;;5112374;28;20002;-74
2022/03/09 12:13:06;;;;;;;;;;;1.80;99.90;;;;;;5094268;28;19912;-74
2022/03/09 12:15:36;;;;;;;;;;;1.70;99.90;;;;;;5094271;28;19912;-74
2022/03/09 12:18:22;;;;;;;;;;;1.50;99.90;;;;;;5094026;28;19998;-75
2022/03/09 12:20:49;;;;;;;;;;;1.40;99.90;;;;;;5093598;28;19919;-75
2022/03/09 12:23:16;;;;;;;;;;;1.30;99.90;;;;;;5093890;28;19919;-73
2022/03/09 12:25:43;;;;;;;;;;;1.30;99.90;;;;;;5093910;28;19918;-74
2022/03/09 12:28:24;;;;;;;;;;;1.20;99.90;;;;;;5093788;28;19912;-75
2022/03/09 12:30:54;;;;;;;;;;;1.20;99.90;;;;;;5112033;28;20363;-74
2022/03/09 12:33:33;;;;;;;;;;;1.20;99.90;;;;;;5093574;28;20380;-74
2022/03/09 12:36:17;;;;;;;;;;;1.20;99.90;;;;;;5112549;28;19911;-75
2022/03/09 12:38:47;;;;;;;;;;;1.20;99.90;;;;;;5112213;28;19919;-75
2022/03/09 12:41:29;;;;;;;;;;;1.30;99.90;;;;;;5111747;28;19957;-75
2022/03/09 12:43:56;;;;;;;;;;;1.30;99.90;;;;;;5094022;28;20240;-76
2022/03/09 12:46:22;;;;;;;;;;;1.30;99.90;;;;;;5093067;28;19916;-74
2022/03/09 12:48:48;;;;;;;;;;;1.30;99.90;;;;;;5093750;28;19918;-74
2022/03/09 12:51:14;;;;;;;;;;;1.20;99.90;;;;;;5111348;28;19922;-75
2022/03/09 12:53:41;;;;;;;;;;;1.20;99.90;;;;;;5093589;28;20351;-75
2022/03/09 12:56:17;;;;;;;;;;;1.20;99.90;;;;;;5093044;28;19931;-74
2022/03/09 12:58:43;;;;;;;;;;;1.20;99.90;;;;;;5093240;28;20377;-75
2022/03/09 13:01:10;;;;;;;;;;;1.20;99.90;;;;;;5092864;28;20007;-74
2022/03/09 13:03:36;;;;;;;;;;;1.20;99.90;;;;;;5092685;28;19911;-74
2022/03/09 13:06:05;;;;;;;;;;;1.30;99.90;;;;;;5111442;28;19911;-74
2022/03/09 13:08:35;;;;;;;;;;;1.40;99.90;;;;;;5111954;28;19965;-74
2022/03/09 13:11:03;;;;;;;;;;;1.50;99.90;;;;;;5111378;28;19916;-74
2022/03/09 13:13:29;;;;;;;;;;;1.50;99.90;;;;;;5111946;28;19912;-74
2022/03/09 13:15:59;;;;;;;;;;;1.60;99.90;;;;;;5092980;28;19961;-74
2022/03/09 13:18:25;;;;;;;;;;;1.60;99.90;;;;;;5111574;28;19912;-74
2022/03/09 13:20:50;;;;;;;;;;;1.50;99.90;;;;;;5092680;28;19912;-74
2022/03/09 13:23:23;;;;;;;;;;;1.50;99.90;;;;;;5111256;28;19916;-74
2022/03/09 13:25:49;;;;;;;;;;;1.50;99.90;;;;;;5111194;28;19955;-74
2022/03/09 13:28:16;;;;;;;;;;;1.40;99.90;;;;;;5092811;28;20415;-74
2022/03/09 13:30:51;;;;;;;;;;;1.40;99.90;;;;;;5110741;28;19938;-75
2022/03/09 13:33:21;;;;;;;;;;;1.30;99.90;;;;;;5092585;28;19922;-74
2022/03/09 13:35:52;;;;;;;;;;;1.20;99.90;;;;;;5111431;28;19916;-75
2022/03/09 13:38:24;;;;;;;;;;;1.10;99.90;;;;;;5111410;28;19912;-74
2022/03/09 13:40:59;;;;;;;;;;;1.00;99.90;;;;;;5092528;28;20429;-74
2022/03/09 13:43:26;;;;;;;;;;;0.80;99.90;;;;;;5111237;28;19916;-74
2022/03/09 13:45:51;;;;;;;;;;;0.70;99.90;;;;;;5111170;28;19916;-73
2022/03/09 13:48:25;;;;;;;;;;;0.50;99.90;;;;;;5092827;28;20279;-74
2022/03/09 13:51:01;;;;;;;;;;;0.40;99.90;;;;;;5092435;28;19923;-74
2022/03/09 13:53:31;;;;;;;;;;;0.20;99.90;;;;;;5092512;28;20473;-74
2022/03/09 13:55:57;;;;;;;;;;;0.20;99.90;;;;;;5110831;28;20414;-74
2022/03/09 13:58:24;;;;;;;;;;;0.10;99.90;;;;;;5092873;28;20379;-73
2022/03/09 14:00:50;;;;;;;;;;;0.10;99.90;;;;;;5116854;28;20261;-75
2022/03/09 14:03:18;;;;;;;;;;;0.10;99.90;;;;;;5111012;28;19919;-74
2022/03/09 14:05:48;;;;;;;;;;;0.20;99.90;;;;;;5092675;28;19912;-74
2022/03/09 14:08:26;;;;;;;;;;;0.20;99.90;;;;;;5111092;28;19912;-74
2022/03/09 14:11:02;;;;;;;;;;;0.20;99.90;;;;;;5092113;28;19927;-74
2022/03/09 14:13:29;;;;;;;;;;;0.30;99.90;;;;;;5111950;28;19925;-74
2022/03/09 14:15:54;;;;;;;;;;;0.30;99.90;;;;;;5096357;28;19989;-74
2022/03/09 14:18:20;;;;;;;;;;;0.20;99.90;;;;;;5115161;28;19924;-74
2022/03/09 14:20:46;;;;;;;;;;;0.20;99.90;;;;;;5096026;28;20379;-75
2022/03/09 14:23:12;;;;;;;;;;;0.00;99.90;;;;;;5096181;28;20330;-74
2022/03/09 14:25:38;;;;;;;;;;;-0.10;99.90;;;;;;5114398;28;19947;-74